Time;durP1;ratioP1;P1;durP2;ratioP2;P2;SDS_P1;SDS_P2;PMS_P1;PMS_P2;Temp;Humidity;BMP_temperature;BMP_pressure;BME280_temperature;BME280_humidity;BME280_pressure;Samples;Min_cycle;Max_cycle;Signal;HPM_P1;HPM_P2
2023/10/10 00:02:18;;;;;;;;;4.00;2.00;;;;;22.84;44.19;101309.42;110186;1259;22595;-38
2023/10/10 00:04:45;;;;;;;;;5.00;4.50;;;;;22.82;44.38;101311.17;110228;1257;20937;-38
2023/10/10 00:07:14;;;;;;;;;4.00;3.33;;;;;22.83;43.99;101309.31;110170;1251;19648;-38
2023/10/10 00:09:43;;;;;;;;;4.00;4.00;;;;;22.82;44.25;101310.73;110201;1260;19205;-37
2023/10/10 00:12:13;;;;;;;;;4.50;4.50;;;;;22.81;44.17;101305.60;110202;1251;19876;-36
2023/10/10 00:14:40;;;;;;;;;4.00;4.00;;;;;22.83;44.04;101308.39;110200;1265;20531;-37
2023/10/10 00:17:09;;;;;;;;;5.33;5.33;;;;;22.81;43.92;101308.48;110219;1250;19284;-38
2023/10/10 00:19:43;;;;;;;;;4.00;2.00;;;;;22.80;44.19;101304.05;110206;1250;20117;-38
2023/10/10 00:22:11;;;;;;;;;2.00;2.00;;;;;22.82;44.17;101305.64;110188;1249;22374;-38
2023/10/10 00:24:39;;;;;;;;;4.00;2.67;;;;;22.80;44.11;101305.86;110194;1265;17882;-37
2023/10/10 00:27:12;;;;;;;;;4.00;4.00;;;;;22.80;43.91;101305.65;110180;1251;21065;-38
2023/10/10 00:29:42;;;;;;;;;4.00;4.00;;;;;22.81;43.88;101306.46;110164;1250;21446;-38
2023/10/10 00:32:16;;;;;;;;;4.33;3.67;;;;;22.80;44.01;101306.52;110198;1250;19391;-38
2023/10/10 00:34:47;;;;;;;;;5.00;4.33;;;;;22.81;44.01;101304.77;110207;1251;20010;-39
2023/10/10 00:37:16;;;;;;;;;2.00;2.00;;;;;22.80;43.88;101301.83;110191;1266;22424;-39
2023/10/10 00:39:52;;;;;;;;;5.50;5.50;;;;;22.79;44.22;101296.45;110169;1250;19132;-38
2023/10/10 00:42:21;;;;;;;;;5.00;4.00;;;;;22.80;43.82;101293.68;110199;1265;18566;-39
2023/10/10 00:44:48;;;;;;;;;4.00;4.00;;;;;22.78;43.86;101298.46;110209;1250;19670;-38
2023/10/10 00:47:26;;;;;;;;;6.00;6.00;;;;;22.79;43.95;101291.82;110190;1251;19542;-38
2023/10/10 00:49:54;;;;;;;;;5.33;4.33;;;;;22.79;43.85;101293.21;110207;1251;20034;-37
2023/10/10 00:52:21;;;;;;;;;5.00;5.00;;;;;22.78;44.05;101286.93;110168;1251;19615;-38
2023/10/10 00:54:50;;;;;;;;;2.67;2.67;;;;;22.77;43.89;101285.61;110198;1250;17930;-38
2023/10/10 00:57:17;;;;;;;;;6.00;5.00;;;;;22.76;43.94;101282.83;110184;1250;20964;-38
2023/10/10 00:59:45;;;;;;;;;2.00;2.00;;;;;22.79;43.74;101282.64;110044;1265;18902;-39
2023/10/10 01:02:14;;;;;;;;;5.00;5.00;;;;;22.78;43.60;101283.11;110172;1251;19362;-39
2023/10/10 01:04:48;;;;;;;;;4.50;4.50;;;;;22.77;43.89;101284.36;110172;1253;20038;-38
2023/10/10 01:07:19;;;;;;;;;4.00;4.00;;;;;22.78;43.53;101281.42;110196;1251;19639;-38
2023/10/10 01:09:55;;;;;;;;;5.67;5.33;;;;;22.77;43.77;101279.07;110205;1265;19179;-37
2023/10/10 01:12:23;;;;;;;;;5.50;5.50;;;;;22.77;43.53;101278.52;110210;1250;19238;-37
2023/10/10 01:14:54;;;;;;;;;2.00;2.00;;;;;22.78;43.54;101289.83;110205;1265;19546;-38
2023/10/10 01:17:25;;;;;;;;;4.00;4.00;;;;;22.78;43.54;101282.50;110067;1265;17932;-39
2023/10/10 01:19:52;;;;;;;;;7.00;5.50;;;;;22.77;43.59;101284.52;110144;1259;20006;-39
2023/10/10 01:22:36;;;;;;;;;4.00;4.00;;;;;22.75;43.80;101287.91;110111;1265;19335;-37
2023/10/10 01:25:20;;;;;;;;;6.50;6.50;;;;;22.74;43.74;101285.94;110189;1265;17945;-36
2023/10/10 01:27:54;;;;;;;;;5.00;5.00;;;;;22.75;43.51;101288.51;110178;1251;19906;-37
2023/10/10 01:30:43;;;;;;;;;4.00;4.00;;;;;22.75;43.68;101291.67;110188;1249;19637;-39
2023/10/10 01:33:13;;;;;;;;;5.33;5.33;;;;;22.76;43.50;101292.27;110183;1251;19329;-37
2023/10/10 01:35:42;;;;;;;;;3.00;3.00;;;;;22.74;43.41;101297.46;110163;1265;18754;-38
2023/10/10 01:38:13;;;;;;;;;6.50;6.00;;;;;22.73;43.64;101299.59;110204;1249;19508;-38
2023/10/10 01:40:41;;;;;;;;;2.00;2.00;;;;;22.73;43.45;101302.27;110190;1251;19318;-38
2023/10/10 01:43:10;;;;;;;;;7.00;7.00;;;;;22.72;43.37;101302.98;110070;1266;18565;-38
2023/10/10 01:45:41;;;;;;;;;2.00;2.00;;;;;22.72;43.36;101305.60;110167;1249;18304;-38
2023/10/10 01:48:11;;;;;;;;;5.00;4.33;;;;;22.72;43.39;101308.23;110191;1265;17923;-37
2023/10/10 01:50:38;;;;;;;;;5.00;5.00;;;;;22.72;43.37;101309.75;110171;1250;19991;-38
2023/10/10 01:53:09;;;;;;;;;3.00;3.00;;;;;22.71;43.47;101305.48;110180;1251;19649;-39
2023/10/10 01:55:37;;;;;;;;;4.00;4.00;;;;;22.72;43.40;101300.46;110212;1249;19193;-38
2023/10/10 01:58:10;;;;;;;;;4.00;4.00;;;;;22.73;43.28;101297.63;110188;1251;20030;-38
2023/10/10 02:00:38;;;;;;;;;4.00;4.00;;;;;22.72;43.34;101290.69;110192;1250;19679;-38
2023/10/10 02:03:06;;;;;;;;;6.00;5.00;;;;;22.70;43.40;101289.27;110187;1265;19634;-38
2023/10/10 02:05:45;;;;;;;;;4.00;4.00;;;;;22.71;43.30;101292.87;110225;1249;20214;-38
2023/10/10 02:08:17;;;;;;;;;2.00;2.00;;;;;22.70;43.39;101288.11;110207;1259;19586;-39
2023/10/10 02:10:46;;;;;;;;;4.00;4.00;;;;;22.73;43.12;101289.98;110210;1249;19354;-37
2023/10/10 02:13:14;;;;;;;;;4.00;4.00;;;;;22.71;43.21;101289.65;110195;1265;18558;-37
2023/10/10 02:15:42;;;;;;;;;5.00;5.00;;;;;22.72;43.40;101289.87;110237;1249;19610;-39
2023/10/10 02:18:13;;;;;;;;;5.00;5.00;;;;;22.73;43.30;101287.30;110201;1259;19350;-38
2023/10/10 02:20:51;;;;;;;;;4.33;4.33;;;;;22.71;43.13;101290.90;110190;1265;20217;-37
2023/10/10 02:23:30;;;;;;;;;5.00;4.33;;;;;22.72;43.32;101293.80;110230;1250;18218;-37
2023/10/10 02:26:03;;;;;;;;;4.00;4.00;;;;;22.71;43.12;101294.23;110198;1250;19331;-38
2023/10/10 02:28:43;;;;;;;;;4.00;3.00;;;;;22.71;43.32;101296.69;110189;1265;18594;-38
2023/10/10 02:31:13;;;;;;;;;2.00;2.00;;;;;22.69;43.29;101301.82;110207;1249;20052;-39
2023/10/10 02:33:48;;;;;;;;;3.00;3.00;;;;;22.69;43.24;101308.38;110167;1250;21879;-38
2023/10/10 02:36:15;;;;;;;;;4.00;2.00;;;;;22.70;43.01;101308.10;110178;1251;20037;-37
2023/10/10 02:38:55;;;;;;;;;4.00;4.00;;;;;22.68;43.16;101308.27;110189;1265;18226;-38
2023/10/10 02:41:27;;;;;;;;;5.00;5.00;;;;;22.70;42.97;101308.82;110202;1251;19327;-38
2023/10/10 02:44:04;;;;;;;;;5.50;4.50;;;;;22.68;43.00;101305.04;110192;1253;19874;-37
2023/10/10 02:46:35;;;;;;;;;4.00;4.00;;;;;22.70;43.03;101300.80;110209;1251;19666;-36
2023/10/10 02:49:09;;;;;;;;;3.33;3.33;;;;;22.67;42.92;101301.81;110181;1257;19232;-38
2023/10/10 02:51:37;;;;;;;;;5.00;4.00;;;;;22.68;42.76;101301.17;110160;1265;18740;-36
2023/10/10 02:54:20;;;;;;;;;4.00;4.00;;;;;22.66;43.02;101301.22;110211;1259;19651;-39
2023/10/10 02:56:48;;;;;;;;;5.00;5.00;;;;;22.67;42.91;101298.82;110209;1265;17933;-39
2023/10/10 02:59:21;;;;;;;;;4.00;4.00;;;;;22.68;42.88;101302.97;110195;1251;19975;-39
2023/10/10 03:01:59;;;;;;;;;4.50;4.50;;;;;22.68;42.69;101297.67;110081;1251;19709;-38
2023/10/10 03:04:52;;;;;;;;;4.00;4.00;;;;;22.68;42.90;101299.58;110096;1251;19380;-38
2023/10/10 03:07:21;;;;;;;;;6.00;6.00;;;;;22.69;42.53;101301.94;110215;1265;18556;-38
2023/10/10 03:12:30;;;;;;;;;4.67;4.67;;;;;22.67;42.73;101290.08;110217;1253;19194;-38
2023/10/10 03:15:12;;;;;;;;;5.50;5.50;;;;;22.67;42.51;101289.20;110189;1257;18596;-38
2023/10/10 03:17:48;;;;;;;;;5.33;4.00;;;;;22.68;42.67;101289.69;110220;1265;19580;-37
2023/10/10 03:20:39;;;;;;;;;4.00;4.00;;;;;22.68;42.76;101286.14;110200;1251;19533;-38
2023/10/10 03:23:23;;;;;;;;;5.00;4.00;;;;;22.66;42.47;101288.44;110191;1258;19870;-38
2023/10/10 03:25:54;;;;;;;;;4.00;4.00;;;;;22.68;42.66;101285.71;110213;1261;19635;-38
2023/10/10 03:28:29;;;;;;;;;4.50;4.50;;;;;22.66;42.62;101288.66;110132;1265;17935;-38
2023/10/10 03:31:06;;;;;;;;;5.00;4.00;;;;;22.65;42.50;101287.45;110020;1251;19948;-38
2023/10/10 03:33:37;;;;;;;;;5.00;5.00;;;;;22.67;42.39;101288.23;110026;1266;18249;-38
2023/10/10 03:36:23;;;;;;;;;5.50;5.00;;;;;22.68;42.31;101285.70;109979;1251;19429;-39
2023/10/10 05:23:47;;;;;;;;;8.00;8.00;;;;;22.64;45.87;101359.10;109380;1262;19245;-38
2023/10/10 05:26:14;;;;;;;;;9.00;9.00;;;;;22.64;45.79;101363.86;109351;1254;20340;-37
2023/10/10 05:28:45;;;;;;;;;9.00;9.00;;;;;22.67;45.57;101365.29;109317;1255;21602;-37
2023/10/10 05:31:17;;;;;;;;;8.50;7.50;;;;;22.66;45.67;101367.19;109352;1256;19444;-37
2023/10/10 05:33:47;;;;;;;;;10.00;9.00;;;;;22.67;45.73;101371.13;109369;1256;20159;-37
2023/10/10 05:36:18;;;;;;;;;10.00;9.00;;;;;22.71;45.68;101380.10;109347;1262;19816;-38
2023/10/10 05:38:46;;;;;;;;;6.00;6.00;;;;;22.65;45.71;101380.46;109382;1255;19615;-38
2023/10/10 05:41:13;;;;;;;;;7.00;7.00;;;;;22.70;45.41;101377.59;109399;1270;18520;-37
2023/10/10 05:43:40;;;;;;;;;6.00;6.00;;;;;22.71;45.73;101378.35;109365;1256;20034;-37
2023/10/10 05:46:08;;;;;;;;;9.00;8.00;;;;;22.71;45.66;101379.60;109397;1270;17937;-38
2023/10/10 05:48:36;;;;;;;;;6.00;6.00;;;;;22.71;45.58;101380.75;109416;1256;20063;-38
2023/10/10 05:51:04;;;;;;;;;8.00;8.00;;;;;22.72;45.36;101378.13;110163;1250;21763;-37
2023/10/10 05:53:33;;;;;;;;;8.50;8.50;;;;;22.68;45.39;101379.16;110179;1265;18355;-37
2023/10/10 05:56:12;;;;;;;;;5.00;5.00;;;;;22.67;45.45;101382.59;110202;1250;19989;-41
2023/10/10 05:58:39;;;;;;;;;7.00;7.00;;;;;22.65;45.48;101383.52;110151;1265;18226;-37
2023/10/10 06:01:07;;;;;;;;;7.00;7.00;;;;;22.67;45.24;101384.08;110208;1265;18018;-37
2023/10/10 06:03:34;;;;;;;;;9.00;8.33;;;;;22.68;44.56;101382.70;110201;1265;18577;-37
2023/10/10 06:06:03;;;;;;;;;8.00;8.00;;;;;22.70;44.65;101384.46;110150;1251;19649;-36
2023/10/10 06:08:31;;;;;;;;;9.50;9.00;;;;;22.73;44.97;101381.91;110180;1251;17888;-37
2023/10/10 06:10:59;;;;;;;;;9.00;9.00;;;;;22.72;45.01;101384.58;110161;1265;18704;-37
2023/10/10 06:13:29;;;;;;;;;10.50;10.00;;;;;22.70;44.74;101385.61;110154;1265;19575;-37
2023/10/10 06:15:57;;;;;;;;;8.33;8.33;;;;;22.70;44.92;101391.61;110169;1265;18226;-37
2023/10/10 06:18:25;;;;;;;;;8.00;8.00;;;;;22.69;44.68;101388.89;110186;1265;19915;-37
2023/10/10 06:20:55;;;;;;;;;9.00;9.00;;;;;22.68;44.62;101391.34;110186;1251;19658;-37
2023/10/10 06:23:22;;;;;;;;;5.50;5.50;;;;;22.68;44.66;101394.29;110192;1259;17889;-37
2023/10/10 06:25:50;;;;;;;;;7.67;7.67;;;;;22.69;44.42;101388.06;110191;1265;18577;-37
2023/10/10 06:28:25;;;;;;;;;9.00;7.67;;;;;22.67;44.57;101385.98;110188;1251;19708;-36
2023/10/10 06:30:53;;;;;;;;;10.00;9.00;;;;;22.67;44.53;101377.95;110178;1257;19209;-37
2023/10/10 06:33:27;;;;;;;;;6.00;6.00;;;;;22.65;44.33;101380.02;110170;1265;20212;-37
2023/10/10 06:35:55;;;;;;;;;6.00;5.00;;;;;22.66;44.12;101379.98;110164;1250;18607;-37
2023/10/10 06:38:24;;;;;;;;;6.00;6.00;;;;;22.65;44.51;101380.13;110206;1259;19416;-37
2023/10/10 06:40:55;;;;;;;;;6.00;4.00;;;;;22.67;44.16;101381.45;110176;1249;21902;-37
2023/10/10 06:43:22;;;;;;;;;5.50;5.50;;;;;22.66;44.15;101380.95;110145;1266;19266;-37
2023/10/10 06:45:54;;;;;;;;;7.00;7.00;;;;;22.64;44.13;101384.93;110160;1250;19334;-37
2023/10/10 06:48:22;;;;;;;;;5.00;5.00;;;;;22.66;44.23;101389.91;109920;1265;355534;-37
2023/10/10 06:50:50;;;;;;;;;5.67;5.67;;;;;22.68;44.06;101383.04;110108;1250;21875;-37
2023/10/10 06:53:29;;;;;;;;;5.00;5.00;;;;;22.67;44.17;101383.48;110171;1251;20530;-38
2023/10/10 06:55:56;;;;;;;;;6.00;5.00;;;;;22.61;43.99;101385.36;110201;1251;18558;-38
2023/10/10 06:58:23;;;;;;;;;6.33;5.67;;;;;22.65;44.10;101388.05;110158;1265;18239;-38
2023/10/10 07:00:55;;;;;;;;;8.33;8.33;;;;;22.63;43.96;101385.09;110186;1257;23326;-38
2023/10/10 07:03:30;;;;;;;;;5.00;5.00;;;;;22.65;43.99;101387.23;110167;1251;20019;-38
2023/10/10 07:05:58;;;;;;;;;9.00;8.00;;;;;22.66;44.13;101385.98;110146;1251;19714;-38
2023/10/10 07:08:25;;;;;;;;;5.50;5.50;;;;;22.68;44.12;101383.70;110190;1259;19161;-38
2023/10/10 07:10:54;;;;;;;;;6.00;4.67;;;;;22.68;45.96;101388.77;110185;1251;20046;-38
2023/10/10 07:13:29;;;;;;;;;8.50;7.50;;;;;22.61;46.14;101393.98;110190;1251;19590;-38
2023/10/10 07:15:56;;;;;;;;;5.67;5.33;;;;;22.64;46.19;101399.02;110166;1250;19505;-38
2023/10/10 07:18:23;;;;;;;;;6.00;6.00;;;;;22.64;46.26;101396.68;110142;1265;18555;-38
2023/10/10 07:21:08;;;;;;;;;10.00;9.00;;;;;22.66;45.81;101397.56;110116;1265;19629;-38
2023/10/10 07:23:38;;;;;;;;;9.33;7.33;;;;;22.67;46.03;101400.40;110151;1251;19480;-39
2023/10/10 07:26:06;;;;;;;;;8.50;8.50;;;;;22.69;45.75;101404.02;110165;1265;18771;-37
2023/10/10 07:28:47;;;;;;;;;15.00;13.00;;;;;22.69;45.53;101401.71;110150;1266;20447;-37
2023/10/10 07:31:17;;;;;;;;;11.00;9.00;;;;;22.65;45.51;101402.69;110130;1250;18105;-37
2023/10/10 07:33:44;;;;;;;;;8.00;8.00;;;;;22.61;45.44;101405.46;110205;1251;19971;-37
2023/10/10 07:36:13;;;;;;;;;9.00;8.33;;;;;22.63;45.45;101407.33;110169;1265;21978;-38
2023/10/10 07:38:40;;;;;;;;;5.00;5.00;;;;;22.65;45.12;101406.23;110193;1265;19186;-38
2023/10/10 07:41:08;;;;;;;;;8.00;8.00;;;;;22.67;45.30;101405.81;110182;1265;19964;-38
2023/10/10 07:43:36;;;;;;;;;6.00;5.00;;;;;22.66;45.65;101404.66;110192;1260;19550;-38
2023/10/10 07:46:21;;;;;;;;;10.00;9.00;;;;;22.64;45.28;101405.20;110213;1265;19282;-38
2023/10/10 07:48:54;;;;;;;;;16.50;15.00;;;;;22.65;44.73;101404.33;110176;1251;20002;-38
2023/10/10 07:51:27;;;;;;;;;7.00;6.50;;;;;22.67;44.22;101403.73;110205;1260;19890;-39
2023/10/10 07:54:00;;;;;;;;;10.00;10.00;;;;;22.64;44.28;101405.85;110183;1265;17876;-38
2023/10/10 07:56:30;;;;;;;;;8.50;8.50;;;;;22.67;44.25;101403.13;110216;1251;19882;-38
2023/10/10 07:58:57;;;;;;;;;6.00;6.00;;;;;22.65;44.26;101398.53;110200;1251;20033;-39
2023/10/10 08:01:27;;;;;;;;;8.50;8.50;;;;;22.69;44.34;101394.35;110213;1249;21585;-38
2023/10/10 08:03:54;;;;;;;;;8.00;8.00;;;;;22.71;44.11;101395.89;110209;1265;20565;-38
2023/10/10 08:06:22;;;;;;;;;9.00;8.50;;;;;22.71;44.15;101394.08;110229;1250;18601;-38
2023/10/10 08:08:56;;;;;;;;;8.00;8.00;;;;;22.69;44.12;101393.47;110306;1251;20589;-38
2023/10/10 08:11:35;;;;;;;;;11.00;11.00;;;;;22.71;44.30;101393.42;110303;1251;19951;-38
2023/10/10 08:14:06;;;;;;;;;7.33;7.33;;;;;22.72;44.38;101390.48;110263;1250;19675;-39
2023/10/10 08:16:34;;;;;;;;;8.00;8.00;;;;;22.72;44.19;101392.17;110209;1249;19344;-38
2023/10/10 08:19:04;;;;;;;;;8.33;8.33;;;;;22.70;44.32;101390.85;110198;1260;19171;-39
2023/10/10 08:21:37;;;;;;;;;7.00;7.00;;;;;22.70;44.10;101395.72;110219;1260;19540;-38
2023/10/10 08:24:04;;;;;;;;;8.50;6.00;;;;;22.68;44.37;101397.62;110231;1249;19270;-38
2023/10/10 08:26:39;;;;;;;;;6.00;6.00;;;;;22.68;44.22;101402.59;110232;1251;21269;-38
2023/10/10 08:29:07;;;;;;;;;5.00;5.00;;;;;22.67;44.23;101403.30;110115;1251;19656;-38
2023/10/10 08:31:36;;;;;;;;;6.00;5.00;;;;;22.67;44.03;101405.92;110116;1257;19490;-38
2023/10/10 08:34:03;;;;;;;;;10.00;8.00;;;;;22.67;44.07;101405.92;110210;1249;19941;-38
2023/10/10 08:36:31;;;;;;;;;6.33;5.67;;;;;22.67;44.26;101408.21;110272;1251;19653;-38
2023/10/10 08:38:59;;;;;;;;;11.00;11.00;;;;;22.67;44.15;101410.07;110329;1265;17866;-38
2023/10/10 08:41:26;;;;;;;;;4.00;4.00;;;;;22.66;43.92;101407.98;110267;1260;19891;-39
2023/10/10 08:43:57;;;;;;;;;5.00;4.50;;;;;22.65;44.31;101410.11;110202;1265;19869;-38
2023/10/10 08:46:25;;;;;;;;;4.50;4.50;;;;;22.66;44.06;101413.23;110236;1251;19356;-38
2023/10/10 08:48:53;;;;;;;;;5.00;5.00;;;;;22.66;44.00;101414.48;110224;1251;19954;-38
2023/10/10 08:51:20;;;;;;;;;6.00;5.33;;;;;22.66;44.18;101417.94;110168;1250;19423;-38
2023/10/10 08:53:50;;;;;;;;;4.00;4.00;;;;;22.67;44.06;101419.09;110209;1265;17915;-38
2023/10/10 08:56:18;;;;;;;;;6.00;6.00;;;;;22.70;44.04;101420.95;110218;1251;19961;-38
2023/10/10 08:58:46;;;;;;;;;5.00;4.50;;;;;22.74;43.81;101426.42;110183;1255;19681;-39
2023/10/10 09:01:13;;;;;;;;;4.00;4.00;;;;;22.76;43.62;101424.42;110158;1251;19772;-38
2023/10/10 09:03:45;;;;;;;;;4.50;4.50;;;;;22.81;43.56;101423.48;110202;1259;19880;-38
2023/10/10 09:06:12;;;;;;;;;5.00;5.00;;;;;22.87;43.49;101423.19;110210;1265;19655;-38
2023/10/10 09:08:43;;;;;;;;;5.00;5.00;;;;;22.91;43.49;101425.33;110183;1265;17902;-39
2023/10/10 09:11:11;;;;;;;;;4.00;4.00;;;;;22.91;43.59;101426.30;110203;1251;19845;-39
2023/10/10 09:13:38;;;;;;;;;5.00;5.00;;;;;22.90;43.47;101425.59;110173;1265;18235;-38
2023/10/10 09:16:13;;;;;;;;;5.00;4.00;;;;;22.89;43.65;101426.09;110160;1250;22358;-39
2023/10/10 09:18:40;;;;;;;;;5.00;5.00;;;;;22.90;43.46;101421.06;110157;1265;22090;-39
2023/10/10 09:21:07;;;;;;;;;4.00;4.00;;;;;22.93;43.35;101419.86;110224;1250;19739;-38
2023/10/10 09:23:42;;;;;;;;;4.00;4.00;;;;;22.92;43.40;101416.91;110202;1265;17915;-39
2023/10/10 09:26:18;;;;;;;;;6.00;4.00;;;;;22.90;43.68;101415.81;110203;1265;18566;-38
2023/10/10 09:28:49;;;;;;;;;4.00;4.00;;;;;22.91;43.61;101414.61;110192;1251;20490;-39
2023/10/10 09:31:21;;;;;;;;;4.00;4.00;;;;;22.93;43.43;101414.34;110219;1262;19352;-39
2023/10/10 09:33:54;;;;;;;;;4.00;4.00;;;;;22.93;43.37;101415.88;110202;1265;18596;-39
2023/10/10 09:36:26;;;;;;;;;4.00;4.00;;;;;22.93;43.43;101416.64;110200;1265;18243;-40
2023/10/10 09:38:56;;;;;;;;;4.00;4.00;;;;;22.95;43.51;101419.77;110190;1250;19108;-39
2023/10/10 09:41:37;;;;;;;;;8.00;8.00;;;;;22.91;43.55;101423.36;110182;1251;20034;-38
2023/10/10 09:46:59;;;;;;;;;16.50;15.50;;;;;22.70;39.09;101419.98;110189;1251;19465;-38
2023/10/10 09:49:35;;;;;;;;;19.00;17.00;;;;;22.53;37.23;101420.33;110203;1250;18564;-39
2023/10/10 09:54:47;;;;;;;;;18.00;16.00;;;;;22.33;36.07;101413.02;110190;1253;19584;-38
2023/10/10 09:57:17;;;;;;;;;15.00;15.00;;;;;22.30;35.20;101408.80;110160;1251;20036;-38
2023/10/10 09:59:45;;;;;;;;;16.00;15.00;;;;;22.32;35.90;101416.56;110179;1250;20012;-37
2023/10/10 10:02:35;;;;;;;;;18.00;16.00;;;;;22.21;34.73;101414.91;110192;1250;19783;-37
2023/10/10 10:05:13;;;;;;;;;16.00;15.00;;;;;22.17;34.45;101415.71;110201;1251;19997;-37
2023/10/10 10:07:41;;;;;;;;;22.00;20.00;;;;;22.16;34.95;101413.85;110189;1259;19945;-37
2023/10/10 10:10:09;;;;;;;;;22.00;18.00;;;;;22.15;34.47;101416.52;110194;1251;19554;-37
2023/10/10 10:12:37;;;;;;;;;18.00;15.00;;;;;22.12;34.52;101416.33;110166;1265;18897;-39
2023/10/10 10:15:05;;;;;;;;;19.00;18.50;;;;;22.11;34.66;101414.52;110217;1249;20008;-39
2023/10/10 10:17:45;;;;;;;;;19.00;18.00;;;;;22.08;34.72;101410.03;110204;1251;19595;-37
2023/10/10 10:20:20;;;;;;;;;18.00;16.00;;;;;22.19;34.54;101406.45;110173;1257;18591;-39
2023/10/10 10:22:48;;;;;;;;;12.00;12.00;;;;;22.20;34.56;101409.95;110186;1265;19250;-38
2023/10/10 10:25:28;;;;;;;;;17.50;14.50;;;;;22.20;34.97;101405.30;110161;1249;19514;-38
2023/10/10 10:28:00;;;;;;;;;14.50;13.00;;;;;22.21;34.73;101403.67;110182;1250;21936;-39
2023/10/10 10:30:46;;;;;;;;;15.50;13.50;;;;;22.19;34.33;101400.11;110222;1265;20325;-39
2023/10/10 10:33:14;;;;;;;;;12.67;12.00;;;;;22.17;34.00;101398.30;110181;1265;18173;-39
2023/10/10 10:35:44;;;;;;;;;11.00;11.00;;;;;22.13;33.96;101395.44;110206;1251;20952;-37
2023/10/10 10:38:12;;;;;;;;;12.00;11.00;;;;;22.10;33.53;101391.65;110200;1265;18594;-39
2023/10/10 10:40:50;;;;;;;;;16.00;15.00;;;;;22.14;33.41;101388.02;110186;1250;19520;-39
2023/10/10 10:43:20;;;;;;;;;17.00;14.00;;;;;22.05;33.27;101381.42;110161;1252;20766;-39
2023/10/10 10:45:51;;;;;;;;;13.00;13.00;;;;;22.05;33.55;101377.70;110181;1250;20270;-38
2023/10/10 10:48:29;;;;;;;;;15.00;12.00;;;;;22.06;33.39;101374.77;110238;1265;18535;-38
2023/10/10 10:50:58;;;;;;;;;15.50;13.00;;;;;22.05;33.30;101371.31;110214;1251;19983;-38
2023/10/10 10:53:32;;;;;;;;;13.00;11.50;;;;;22.02;33.12;101374.72;110181;1265;18563;-38
2023/10/10 10:59:11;;;;;;;;;14.50;13.00;;;;;22.02;33.37;101362.63;109907;1262;21165;-38
2023/10/10 11:01:42;;;;;;;;;16.00;15.00;;;;;22.04;33.34;101361.87;110168;1249;20007;-39
2023/10/10 11:04:14;;;;;;;;;14.00;12.00;;;;;22.02;33.33;101356.46;110099;1266;19426;-39
2023/10/10 11:06:41;;;;;;;;;16.00;14.00;;;;;22.03;33.13;101357.62;110200;1259;19917;-39
2023/10/10 11:09:23;;;;;;;;;11.00;11.00;;;;;21.99;33.03;101350.14;110177;1257;18614;-38
2023/10/10 11:11:57;;;;;;;;;11.00;11.00;;;;;22.02;33.01;101347.61;110178;1259;19703;-39
2023/10/10 11:14:28;;;;;;;;;9.00;9.00;;;;;21.98;32.52;101346.59;110186;1250;20042;-38
2023/10/10 11:16:57;;;;;;;;;14.00;12.00;;;;;21.97;32.67;101343.48;110181;1251;20053;-38
2023/10/10 11:19:38;;;;;;;;;10.00;9.00;;;;;21.98;32.41;101340.88;110201;1251;19563;-40
2023/10/10 11:22:12;;;;;;;;;10.00;9.00;;;;;21.96;32.44;101342.20;110220;1251;20466;-37
2023/10/10 11:24:40;;;;;;;;;8.00;8.00;;;;;21.95;32.09;101339.81;110151;1250;19932;-38
2023/10/10 11:27:21;;;;;;;;;8.50;8.00;;;;;22.05;32.81;101346.27;110187;1265;19483;-38
2023/10/10 11:29:50;;;;;;;;;8.00;8.00;;;;;22.10;33.20;101338.01;110194;1251;20021;-39
2023/10/10 11:32:23;;;;;;;;;7.00;7.00;;;;;22.16;33.52;101334.06;110181;1251;19634;-38
2023/10/10 11:34:51;;;;;;;;;7.50;7.00;;;;;22.18;33.68;101335.23;110182;1265;17963;-38
2023/10/10 11:37:20;;;;;;;;;7.00;7.00;;;;;22.17;33.97;101332.38;110150;1265;19951;-38
2023/10/10 11:39:48;;;;;;;;;6.00;6.00;;;;;22.20;33.92;101331.78;110090;1251;19635;-38
2023/10/10 11:42:15;;;;;;;;;7.00;6.00;;;;;22.25;34.49;101330.49;110150;1257;19250;-38
2023/10/10 11:44:43;;;;;;;;;6.00;6.00;;;;;22.26;34.42;101324.34;110084;1250;20098;-38
2023/10/10 11:47:24;;;;;;;;;5.00;5.00;;;;;22.24;34.52;101320.95;110122;1265;18217;-38
2023/10/10 11:49:52;;;;;;;;;5.00;5.00;;;;;22.25;35.16;101317.67;110181;1251;20701;-38
2023/10/10 11:52:19;;;;;;;;;5.50;5.50;;;;;22.30;35.09;101316.33;110197;1265;18703;-37
2023/10/10 11:54:47;;;;;;;;;4.50;4.50;;;;;22.31;35.24;101312.73;110191;1251;19618;-37
2023/10/10 11:57:15;;;;;;;;;5.00;5.00;;;;;22.27;35.60;101311.46;110169;1265;18025;-38
2023/10/10 11:59:44;;;;;;;;;3.33;2.67;;;;;22.28;35.93;101312.66;110205;1250;18559;-38
2023/10/10 12:02:16;;;;;;;;;5.00;4.00;;;;;22.29;35.97;101307.20;110191;1250;19559;-39
2023/10/10 12:04:45;;;;;;;;;4.00;4.00;;;;;22.31;36.00;101304.65;110207;1251;19285;-39
2023/10/10 12:07:14;;;;;;;;;2.00;2.00;;;;;22.31;36.32;101302.36;110200;1265;18582;-39
2023/10/10 12:09:45;;;;;;;;;4.00;4.00;;;;;22.31;36.44;101306.72;110184;1251;19655;-39
2023/10/10 12:12:13;;;;;;;;;6.00;6.00;;;;;22.33;36.49;101306.13;110165;1265;17809;-39
2023/10/10 12:14:42;;;;;;;;;4.00;4.00;;;;;22.31;36.54;101302.08;110212;1257;19988;-38
2023/10/10 12:17:10;;;;;;;;;4.00;4.00;;;;;22.32;36.93;101304.92;110173;1251;19672;-38
2023/10/10 12:19:37;;;;;;;;;2.00;2.00;;;;;22.33;36.73;101306.19;110205;1250;19516;-39
2023/10/10 12:22:10;;;;;;;;;4.67;4.00;;;;;22.35;36.68;101308.60;110184;1259;18955;-38
2023/10/10 12:24:39;;;;;;;;;4.50;4.50;;;;;22.36;37.03;101311.06;110132;1251;19624;-38
2023/10/10 12:27:09;;;;;;;;;4.00;4.00;;;;;22.36;37.00;101308.16;110113;1259;22790;-38
2023/10/10 12:29:39;;;;;;;;;2.00;2.00;;;;;22.38;37.00;101306.10;110107;1251;20009;-38
2023/10/10 12:32:15;;;;;;;;;4.00;4.00;;;;;22.37;37.16;101304.89;110108;1250;21505;-38
2023/10/10 12:34:42;;;;;;;;;4.00;4.00;;;;;22.38;37.06;101298.30;110143;1265;17920;-38
2023/10/10 12:37:10;;;;;;;;;4.00;4.00;;;;;22.40;37.31;101292.23;110150;1259;19927;-38
2023/10/10 12:39:38;;;;;;;;;4.50;4.50;;;;;22.38;37.40;101287.59;110156;1265;18188;-39
2023/10/10 12:42:07;;;;;;;;;4.00;4.00;;;;;22.39;37.83;101281.70;110168;1251;19692;-37
2023/10/10 12:44:35;;;;;;;;;5.00;5.00;;;;;22.36;37.39;101284.80;110156;1258;18569;-38
2023/10/10 12:47:06;;;;;;;;;5.00;5.00;;;;;22.36;37.09;101287.30;110168;1262;19710;-37
2023/10/10 12:49:36;;;;;;;;;12.00;11.00;;;;;22.37;37.15;101287.10;110170;1251;19327;-39
2023/10/10 12:52:11;;;;;;;;;9.67;9.67;;;;;22.38;37.51;101290.10;110084;1250;20190;-38
2023/10/10 12:54:38;;;;;;;;;15.00;13.00;;;;;22.38;37.75;101287.48;110135;1259;20326;-36
2023/10/10 12:57:13;;;;;;;;;22.50;21.00;;;;;22.34;37.93;101284.73;110195;1266;18151;-39
2023/10/10 12:59:46;;;;;;;;;115.00;87.50;;;;;22.33;37.74;101287.20;110169;1251;19911;-38
2023/10/10 13:02:15;;;;;;;;;101.00;72.00;;;;;22.29;36.84;101276.87;110190;1265;18560;-38
2023/10/10 13:04:46;;;;;;;;;87.00;62.00;;;;;22.23;36.20;101274.44;110195;1251;19998;-38
2023/10/10 13:07:15;;;;;;;;;79.00;56.00;;;;;22.22;36.09;101261.99;110165;1251;22059;-38
2023/10/10 13:09:46;;;;;;;;;66.00;51.00;;;;;22.23;36.02;101256.70;110171;1253;20265;-37
2023/10/10 13:12:18;;;;;;;;;52.00;45.00;;;;;22.19;36.04;101252.38;110192;1265;18161;-38
2023/10/10 13:14:50;;;;;;;;;47.00;41.00;;;;;22.19;35.52;101245.61;110233;1250;19946;-38
2023/10/10 13:17:29;;;;;;;;;35.50;32.00;;;;;22.18;35.11;101248.83;110214;1249;19994;-37
2023/10/10 13:19:58;;;;;;;;;28.50;26.00;;;;;22.14;35.08;101248.27;110139;1265;21987;-38
2023/10/10 13:22:29;;;;;;;;;24.00;19.00;;;;;22.11;34.52;101255.29;110166;1251;20008;-39
2023/10/10 13:24:56;;;;;;;;;23.00;19.00;;;;;22.14;34.88;101252.90;110189;1265;20025;-39
2023/10/10 13:27:25;;;;;;;;;27.33;21.67;;;;;22.15;35.51;101249.85;110169;1265;18186;-38
2023/10/10 13:29:52;;;;;;;;;23.67;21.00;;;;;22.11;36.27;101242.74;110184;1251;20118;-39